sensor_id;sensor_type;location;lat;lon;timestamp;P1;durP1;ratioP1;P2;durP2;ratioP2
8791;SDS011;4432;50.890;4.744;2022-08-20T00:02:24;9.07;;;4.07;;
8791;SDS011;4432;50.890;4.744;2022-08-20T00:04:51;6.77;;;4.40;;
8791;SDS011;4432;50.890;4.744;2022-08-20T00:07:16;7.03;;;4.17;;
8791;SDS011;4432;50.890;4.744;2022-08-20T00:09:42;5.07;;;3.77;;
8791;SDS011;4432;50.890;4.744;2022-08-20T00:12:09;7.97;;;4.33;;
8791;SDS011;4432;50.890;4.744;2022-08-20T00:14:36;7.33;;;3.63;;
8791;SDS011;4432;50.890;4.744;2022-08-20T00:17:03;5.50;;;3.60;;
8791;SDS011;4432;50.890;4.744;2022-08-20T00:19:29;11.17;;;3.43;;
8791;SDS011;4432;50.890;4.744;2022-08-20T00:21:55;7.50;;;3.20;;
8791;SDS011;4432;50.890;4.744;2022-08-20T00:24:22;3.90;;;3.20;;
8791;SDS011;4432;50.890;4.744;2022-08-20T00:26:48;4.27;;;3.10;;
8791;SDS011;4432;50.890;4.744;2022-08-20T00:29:14;8.17;;;3.67;;
8791;SDS011;4432;50.890;4.744;2022-08-20T00:31:40;3.30;;;3.00;;
8791;SDS011;4432;50.890;4.744;2022-08-20T00:34:06;3.83;;;3.37;;
8791;SDS011;4432;50.890;4.744;2022-08-20T00:36:32;3.70;;;3.33;;
8791;SDS011;4432;50.890;4.744;2022-08-20T00:38:57;4.60;;;3.60;;
8791;SDS011;4432;50.890;4.744;2022-08-20T00:41:24;3.77;;;3.37;;
8791;SDS011;4432;50.890;4.744;2022-08-20T00:43:55;4.13;;;3.30;;
8791;SDS011;4432;50.890;4.744;2022-08-20T00:46:34;4.83;;;3.47;;
8791;SDS011;4432;50.890;4.744;2022-08-20T00:49:01;8.67;;;3.70;;
8791;SDS011;4432;50.890;4.744;2022-08-20T00:51:43;7.87;;;3.40;;
8791;SDS011;4432;50.890;4.744;2022-08-20T00:54:22;4.00;;;3.53;;
8791;SDS011;4432;50.890;4.744;2022-08-20T00:56:56;4.60;;;3.13;;
8791;SDS011;4432;50.890;4.744;2022-08-20T00:59:33;7.07;;;3.47;;
8791;SDS011;4432;50.890;4.744;2022-08-20T01:02:01;4.20;;;3.70;;
8791;SDS011;4432;50.890;4.744;2022-08-20T01:04:32;4.47;;;3.57;;
8791;SDS011;4432;50.890;4.744;2022-08-20T01:07:00;5.20;;;4.10;;
8791;SDS011;4432;50.890;4.744;2022-08-20T01:09:29;5.73;;;3.23;;
8791;SDS011;4432;50.890;4.744;2022-08-20T01:11:55;7.57;;;3.20;;
8791;SDS011;4432;50.890;4.744;2022-08-20T01:14:21;5.30;;;3.10;;
8791;SDS011;4432;50.890;4.744;2022-08-20T01:16:53;5.33;;;2.87;;
8791;SDS011;4432;50.890;4.744;2022-08-20T01:19:24;4.33;;;3.37;;
8791;SDS011;4432;50.890;4.744;2022-08-20T01:22:16;5.77;;;2.93;;
8791;SDS011;4432;50.890;4.744;2022-08-20T01:25:20;4.43;;;3.13;;
8791;SDS011;4432;50.890;4.744;2022-08-20T01:28:07;7.80;;;3.77;;
8791;SDS011;4432;50.890;4.744;2022-08-20T01:30:36;5.17;;;3.50;;
8791;SDS011;4432;50.890;4.744;2022-08-20T01:33:02;4.57;;;3.10;;
8791;SDS011;4432;50.890;4.744;2022-08-20T01:35:30;2.90;;;2.60;;
8791;SDS011;4432;50.890;4.744;2022-08-20T01:38:01;4.33;;;2.73;;
8791;SDS011;4432;50.890;4.744;2022-08-20T01:40:34;6.53;;;3.20;;
8791;SDS011;4432;50.890;4.744;2022-08-20T01:43:06;3.13;;;2.33;;
8791;SDS011;4432;50.890;4.744;2022-08-20T01:45:33;2.57;;;2.37;;
8791;SDS011;4432;50.890;4.744;2022-08-20T01:48:00;6.53;;;2.77;;
8791;SDS011;4432;50.890;4.744;2022-08-20T01:50:27;5.50;;;2.90;;
8791;SDS011;4432;50.890;4.744;2022-08-20T01:53:10;5.37;;;2.90;;
8791;SDS011;4432;50.890;4.744;2022-08-20T01:55:43;3.83;;;2.67;;
8791;SDS011;4432;50.890;4.744;2022-08-20T01:58:09;5.93;;;2.90;;
8791;SDS011;4432;50.890;4.744;2022-08-20T02:00:35;2.73;;;2.33;;
8791;SDS011;4432;50.890;4.744;2022-08-20T02:03:01;5.47;;;2.40;;
8791;SDS011;4432;50.890;4.744;2022-08-20T02:05:28;13.77;;;2.93;;
8791;SDS011;4432;50.890;4.744;2022-08-20T02:07:54;5.43;;;2.93;;
8791;SDS011;4432;50.890;4.744;2022-08-20T02:10:20;5.93;;;2.73;;
8791;SDS011;4432;50.890;4.744;2022-08-20T02:12:47;7.53;;;2.80;;
8791;SDS011;4432;50.890;4.744;2022-08-20T02:15:13;7.43;;;2.80;;
8791;SDS011;4432;50.890;4.744;2022-08-20T02:17:39;7.13;;;3.03;;
8791;SDS011;4432;50.890;4.744;2022-08-20T02:20:10;4.87;;;2.73;;
8791;SDS011;4432;50.890;4.744;2022-08-20T02:22:41;8.53;;;2.67;;
8791;SDS011;4432;50.890;4.744;2022-08-20T02:25:08;7.77;;;2.93;;
8791;SDS011;4432;50.890;4.744;2022-08-20T02:27:35;4.57;;;2.50;;
8791;SDS011;4432;50.890;4.744;2022-08-20T02:30:05;7.17;;;2.33;;
8791;SDS011;4432;50.890;4.744;2022-08-20T02:32:35;3.23;;;2.90;;
8791;SDS011;4432;50.890;4.744;2022-08-20T02:35:04;4.07;;;2.87;;
8791;SDS011;4432;50.890;4.744;2022-08-20T02:37:34;9.03;;;2.80;;
8791;SDS011;4432;50.890;4.744;2022-08-20T02:40:02;9.00;;;2.60;;
8791;SDS011;4432;50.890;4.744;2022-08-20T02:42:29;6.00;;;2.63;;
8791;SDS011;4432;50.890;4.744;2022-08-20T02:44:55;5.13;;;2.83;;
8791;SDS011;4432;50.890;4.744;2022-08-20T02:47:22;5.83;;;2.80;;
8791;SDS011;4432;50.890;4.744;2022-08-20T02:49:50;3.33;;;2.13;;
8791;SDS011;4432;50.890;4.744;2022-08-20T02:52:15;5.60;;;2.47;;
8791;SDS011;4432;50.890;4.744;2022-08-20T02:54:41;7.87;;;2.90;;
8791;SDS011;4432;50.890;4.744;2022-08-20T02:57:11;8.07;;;3.00;;
8791;SDS011;4432;50.890;4.744;2022-08-20T02:59:37;4.83;;;2.83;;
8791;SDS011;4432;50.890;4.744;2022-08-20T03:02:03;5.10;;;2.30;;
8791;SDS011;4432;50.890;4.744;2022-08-20T03:04:29;8.03;;;3.00;;
8791;SDS011;4432;50.890;4.744;2022-08-20T03:06:56;6.00;;;2.93;;
8791;SDS011;4432;50.890;4.744;2022-08-20T03:09:23;10.03;;;3.07;;
8791;SDS011;4432;50.890;4.744;2022-08-20T03:11:49;8.53;;;2.80;;
8791;SDS011;4432;50.890;4.744;2022-08-20T03:14:15;4.03;;;2.80;;
8791;SDS011;4432;50.890;4.744;2022-08-20T03:16:41;5.67;;;2.73;;
8791;SDS011;4432;50.890;4.744;2022-08-20T03:19:07;8.53;;;3.00;;
8791;SDS011;4432;50.890;4.744;2022-08-20T03:21:33;6.77;;;2.63;;
8791;SDS011;4432;50.890;4.744;2022-08-20T03:23:59;9.00;;;2.93;;
8791;SDS011;4432;50.890;4.744;2022-08-20T03:26:25;7.60;;;3.00;;
8791;SDS011;4432;50.890;4.744;2022-08-20T03:28:50;6.97;;;3.20;;
8791;SDS011;4432;50.890;4.744;2022-08-20T03:31:16;5.43;;;2.87;;
8791;SDS011;4432;50.890;4.744;2022-08-20T03:33:42;6.53;;;3.03;;
8791;SDS011;4432;50.890;4.744;2022-08-20T03:36:08;3.87;;;3.00;;
8791;SDS011;4432;50.890;4.744;2022-08-20T03:38:34;5.77;;;3.23;;
8791;SDS011;4432;50.890;4.744;2022-08-20T03:41:00;7.03;;;2.83;;
8791;SDS011;4432;50.890;4.744;2022-08-20T03:43:27;5.73;;;3.03;;
8791;SDS011;4432;50.890;4.744;2022-08-20T03:45:53;5.40;;;2.70;;
8791;SDS011;4432;50.890;4.744;2022-08-20T03:48:19;6.47;;;3.13;;
8791;SDS011;4432;50.890;4.744;2022-08-20T03:50:45;5.87;;;3.00;;
8791;SDS011;4432;50.890;4.744;2022-08-20T03:53:12;7.03;;;3.00;;
8791;SDS011;4432;50.890;4.744;2022-08-20T03:55:39;4.67;;;2.87;;
8791;SDS011;4432;50.890;4.744;2022-08-20T03:58:07;6.90;;;2.93;;
8791;SDS011;4432;50.890;4.744;2022-08-20T04:00:36;5.07;;;3.20;;
8791;SDS011;4432;50.890;4.744;2022-08-20T04:03:04;9.97;;;3.07;;
8791;SDS011;4432;50.890;4.744;2022-08-20T04:05:32;9.43;;;3.20;;
8791;SDS011;4432;50.890;4.744;2022-08-20T04:08:05;7.17;;;3.23;;
8791;SDS011;4432;50.890;4.744;2022-08-20T04:10:36;7.33;;;3.17;;
8791;SDS011;4432;50.890;4.744;2022-08-20T04:13:02;7.80;;;2.90;;
8791;SDS011;4432;50.890;4.744;2022-08-20T04:15:29;9.37;;;3.80;;
8791;SDS011;4432;50.890;4.744;2022-08-20T04:17:56;5.93;;;2.77;;
8791;SDS011;4432;50.890;4.744;2022-08-20T04:20:22;5.73;;;3.40;;
8791;SDS011;4432;50.890;4.744;2022-08-20T04:22:50;8.53;;;2.90;;
8791;SDS011;4432;50.890;4.744;2022-08-20T04:25:17;6.67;;;3.30;;
8791;SDS011;4432;50.890;4.744;2022-08-20T04:27:43;5.53;;;3.70;;
8791;SDS011;4432;50.890;4.744;2022-08-20T04:30:10;11.17;;;3.73;;
8791;SDS011;4432;50.890;4.744;2022-08-20T04:32:38;11.50;;;3.93;;
8791;SDS011;4432;50.890;4.744;2022-08-20T04:35:06;7.43;;;4.00;;
8791;SDS011;4432;50.890;4.744;2022-08-20T04:37:36;12.30;;;4.13;;
8791;SDS011;4432;50.890;4.744;2022-08-20T04:40:06;7.10;;;3.77;;
8791;SDS011;4432;50.890;4.744;2022-08-20T04:42:53;9.30;;;3.93;;
8791;SDS011;4432;50.890;4.744;2022-08-20T04:45:19;11.27;;;3.57;;
8791;SDS011;4432;50.890;4.744;2022-08-20T04:47:46;6.20;;;3.30;;
8791;SDS011;4432;50.890;4.744;2022-08-20T04:50:13;10.30;;;3.97;;
8791;SDS011;4432;50.890;4.744;2022-08-20T04:52:39;12.87;;;4.17;;
8791;SDS011;4432;50.890;4.744;2022-08-20T04:55:05;8.13;;;3.43;;
8791;SDS011;4432;50.890;4.744;2022-08-20T04:57:32;15.70;;;4.47;;
8791;SDS011;4432;50.890;4.744;2022-08-20T05:00:03;12.47;;;3.97;;
8791;SDS011;4432;50.890;4.744;2022-08-20T05:02:32;14.67;;;4.20;;
8791;SDS011;4432;50.890;4.744;2022-08-20T05:04:59;9.47;;;3.80;;
8791;SDS011;4432;50.890;4.744;2022-08-20T05:07:24;10.50;;;4.27;;
8791;SDS011;4432;50.890;4.744;2022-08-20T05:09:50;8.13;;;4.07;;
8791;SDS011;4432;50.890;4.744;2022-08-20T05:12:16;8.20;;;4.30;;
8791;SDS011;4432;50.890;4.744;2022-08-20T05:14:44;13.97;;;3.80;;
8791;SDS011;4432;50.890;4.744;2022-08-20T05:17:11;12.63;;;4.33;;
8791;SDS011;4432;50.890;4.744;2022-08-20T05:19:39;11.83;;;4.20;;
8791;SDS011;4432;50.890;4.744;2022-08-20T05:22:06;8.80;;;4.03;;
8791;SDS011;4432;50.890;4.744;2022-08-20T05:24:32;9.57;;;3.97;;
8791;SDS011;4432;50.890;4.744;2022-08-20T05:26:58;6.77;;;3.63;;
8791;SDS011;4432;50.890;4.744;2022-08-20T05:29:25;9.47;;;4.30;;
8791;SDS011;4432;50.890;4.744;2022-08-20T05:31:51;12.87;;;4.57;;
8791;SDS011;4432;50.890;4.744;2022-08-20T05:34:18;12.60;;;4.00;;
8791;SDS011;4432;50.890;4.744;2022-08-20T05:36:45;12.60;;;4.60;;
8791;SDS011;4432;50.890;4.744;2022-08-20T05:39:14;13.37;;;4.40;;
8791;SDS011;4432;50.890;4.744;2022-08-20T05:41:40;7.73;;;3.90;;
8791;SDS011;4432;50.890;4.744;2022-08-20T05:44:07;6.67;;;3.33;;
8791;SDS011;4432;50.890;4.744;2022-08-20T05:46:37;7.73;;;4.00;;
8791;SDS011;4432;50.890;4.744;2022-08-20T05:49:05;7.83;;;3.90;;
8791;SDS011;4432;50.890;4.744;2022-08-20T05:51:35;14.07;;;4.10;;
8791;SDS011;4432;50.890;4.744;2022-08-20T05:54:02;11.97;;;4.90;;
8791;SDS011;4432;50.890;4.744;2022-08-20T05:56:29;9.67;;;3.97;;
8791;SDS011;4432;50.890;4.744;2022-08-20T05:58:55;12.03;;;4.10;;
8791;SDS011;4432;50.890;4.744;2022-08-20T06:01:21;13.73;;;4.27;;
8791;SDS011;4432;50.890;4.744;2022-08-20T06:03:47;17.63;;;4.30;;
8791;SDS011;4432;50.890;4.744;2022-08-20T06:06:32;12.17;;;4.30;;
8791;SDS011;4432;50.890;4.744;2022-08-20T06:08:58;6.00;;;3.43;;
8791;SDS011;4432;50.890;4.744;2022-08-20T06:11:24;12.13;;;3.70;;
8791;SDS011;4432;50.890;4.744;2022-08-20T06:13:49;9.53;;;3.60;;
8791;SDS011;4432;50.890;4.744;2022-08-20T06:16:15;12.63;;;4.07;;
8791;SDS011;4432;50.890;4.744;2022-08-20T06:18:41;10.20;;;4.60;;
8791;SDS011;4432;50.890;4.744;2022-08-20T06:21:07;11.97;;;4.03;;
8791;SDS011;4432;50.890;4.744;2022-08-20T06:23:33;8.07;;;4.13;;
8791;SDS011;4432;50.890;4.744;2022-08-20T06:25:58;15.40;;;4.17;;
8791;SDS011;4432;50.890;4.744;2022-08-20T06:28:24;14.87;;;4.40;;
8791;SDS011;4432;50.890;4.744;2022-08-20T06:30:50;10.77;;;3.87;;
8791;SDS011;4432;50.890;4.744;2022-08-20T06:33:16;10.77;;;4.30;;
8791;SDS011;4432;50.890;4.744;2022-08-20T06:35:41;15.73;;;4.40;;
8791;SDS011;4432;50.890;4.744;2022-08-20T06:38:09;9.07;;;4.10;;
8791;SDS011;4432;50.890;4.744;2022-08-20T06:40:37;11.67;;;4.50;;
8791;SDS011;4432;50.890;4.744;2022-08-20T06:43:03;12.43;;;4.37;;
8791;SDS011;4432;50.890;4.744;2022-08-20T06:45:31;16.20;;;4.57;;
8791;SDS011;4432;50.890;4.744;2022-08-20T06:47:58;17.30;;;4.73;;
8791;SDS011;4432;50.890;4.744;2022-08-20T06:50:29;10.50;;;4.60;;
8791;SDS011;4432;50.890;4.744;2022-08-20T06:52:58;9.87;;;4.70;;
8791;SDS011;4432;50.890;4.744;2022-08-20T06:55:24;15.23;;;5.33;;
8791;SDS011;4432;50.890;4.744;2022-08-20T06:58:01;16.27;;;5.13;;
8791;SDS011;4432;50.890;4.744;2022-08-20T07:00:29;21.07;;;4.87;;
8791;SDS011;4432;50.890;4.744;2022-08-20T07:02:57;8.30;;;4.57;;
8791;SDS011;4432;50.890;4.744;2022-08-20T07:05:30;10.63;;;4.40;;
8791;SDS011;4432;50.890;4.744;2022-08-20T07:07:57;10.03;;;4.20;;
8791;SDS011;4432;50.890;4.744;2022-08-20T07:10:25;18.27;;;4.93;;
8791;SDS011;4432;50.890;4.744;2022-08-20T07:12:52;11.53;;;4.43;;
8791;SDS011;4432;50.890;4.744;2022-08-20T07:15:19;15.37;;;5.13;;
8791;SDS011;4432;50.890;4.744;2022-08-20T07:17:54;12.67;;;5.20;;
8791;SDS011;4432;50.890;4.744;2022-08-20T07:20:25;9.63;;;4.67;;
8791;SDS011;4432;50.890;4.744;2022-08-20T07:22:54;20.77;;;5.73;;
8791;SDS011;4432;50.890;4.744;2022-08-20T07:25:20;14.27;;;5.27;;
8791;SDS011;4432;50.890;4.744;2022-08-20T07:27:47;10.30;;;4.47;;
8791;SDS011;4432;50.890;4.744;2022-08-20T07:30:15;13.53;;;4.60;;
8791;SDS011;4432;50.890;4.744;2022-08-20T07:33:05;11.80;;;4.63;;
8791;SDS011;4432;50.890;4.744;2022-08-20T07:35:31;21.07;;;5.40;;
8791;SDS011;4432;50.890;4.744;2022-08-20T07:37:57;15.90;;;5.50;;
8791;SDS011;4432;50.890;4.744;2022-08-20T07:40:24;18.57;;;5.23;;
8791;SDS011;4432;50.890;4.744;2022-08-20T07:42:56;15.47;;;5.00;;
8791;SDS011;4432;50.890;4.744;2022-08-20T07:45:23;15.23;;;5.43;;
8791;SDS011;4432;50.890;4.744;2022-08-20T07:47:50;19.40;;;5.67;;
8791;SDS011;4432;50.890;4.744;2022-08-20T07:50:19;17.83;;;5.20;;
8791;SDS011;4432;50.890;4.744;2022-08-20T07:52:47;13.67;;;5.00;;
8791;SDS011;4432;50.890;4.744;2022-08-20T07:55:16;12.87;;;5.13;;
8791;SDS011;4432;50.890;4.744;2022-08-20T07:57:43;10.83;;;5.10;;
8791;SDS011;4432;50.890;4.744;2022-08-20T08:00:11;13.80;;;5.40;;
8791;SDS011;4432;50.890;4.744;2022-08-20T08:02:38;16.23;;;6.10;;
8791;SDS011;4432;50.890;4.744;2022-08-20T08:05:04;15.23;;;5.20;;
8791;SDS011;4432;50.890;4.744;2022-08-20T08:07:31;9.63;;;4.87;;
8791;SDS011;4432;50.890;4.744;2022-08-20T08:09:58;13.00;;;5.10;;
8791;SDS011;4432;50.890;4.744;2022-08-20T08:12:26;17.50;;;5.67;;
8791;SDS011;4432;50.890;4.744;2022-08-20T08:14:59;12.43;;;5.27;;
8791;SDS011;4432;50.890;4.744;2022-08-20T08:17:25;9.67;;;4.77;;
8791;SDS011;4432;50.890;4.744;2022-08-20T08:19:52;11.87;;;5.33;;
8791;SDS011;4432;50.890;4.744;2022-08-20T08:22:18;13.13;;;5.47;;
8791;SDS011;4432;50.890;4.744;2022-08-20T08:24:44;15.03;;;5.13;;
8791;SDS011;4432;50.890;4.744;2022-08-20T08:27:13;13.27;;;5.83;;
8791;SDS011;4432;50.890;4.744;2022-08-20T08:29:42;16.83;;;6.20;;
8791;SDS011;4432;50.890;4.744;2022-08-20T08:32:09;11.80;;;5.67;;
8791;SDS011;4432;50.890;4.744;2022-08-20T08:34:35;15.40;;;5.60;;
8791;SDS011;4432;50.890;4.744;2022-08-20T08:37:02;13.23;;;6.00;;
8791;SDS011;4432;50.890;4.744;2022-08-20T08:39:28;12.27;;;4.93;;
8791;SDS011;4432;50.890;4.744;2022-08-20T08:41:56;15.23;;;6.07;;
8791;SDS011;4432;50.890;4.744;2022-08-20T08:44:27;11.73;;;5.73;;
8791;SDS011;4432;50.890;4.744;2022-08-20T08:46:57;9.83;;;6.43;;
8791;SDS011;4432;50.890;4.744;2022-08-20T08:49:37;12.23;;;5.93;;
8791;SDS011;4432;50.890;4.744;2022-08-20T08:52:06;12.57;;;6.03;;
8791;SDS011;4432;50.890;4.744;2022-08-20T08:54:37;10.53;;;5.53;;
8791;SDS011;4432;50.890;4.744;2022-08-20T08:57:08;9.77;;;5.07;;
8791;SDS011;4432;50.890;4.744;2022-08-20T08:59:34;9.07;;;4.63;;
8791;SDS011;4432;50.890;4.744;2022-08-20T09:02:00;11.87;;;5.83;;
8791;SDS011;4432;50.890;4.744;2022-08-20T09:04:28;8.90;;;5.07;;
8791;SDS011;4432;50.890;4.744;2022-08-20T09:07:02;6.70;;;4.40;;
8791;SDS011;4432;50.890;4.744;2022-08-20T09:09:33;6.50;;;3.30;;
8791;SDS011;4432;50.890;4.744;2022-08-20T09:12:03;6.23;;;3.93;;
8791;SDS011;4432;50.890;4.744;2022-08-20T09:14:34;4.90;;;3.23;;
8791;SDS011;4432;50.890;4.744;2022-08-20T09:17:00;4.20;;;3.13;;
8791;SDS011;4432;50.890;4.744;2022-08-20T09:19:26;5.50;;;2.90;;
8791;SDS011;4432;50.890;4.744;2022-08-20T09:21:52;4.80;;;2.67;;
8791;SDS011;4432;50.890;4.744;2022-08-20T09:24:19;3.43;;;2.47;;
8791;SDS011;4432;50.890;4.744;2022-08-20T09:26:45;4.50;;;2.17;;
8791;SDS011;4432;50.890;4.744;2022-08-20T09:29:10;5.60;;;2.50;;
8791;SDS011;4432;50.890;4.744;2022-08-20T09:31:36;5.83;;;2.30;;
8791;SDS011;4432;50.890;4.744;2022-08-20T09:34:02;4.93;;;2.17;;
8791;SDS011;4432;50.890;4.744;2022-08-20T09:36:28;4.63;;;2.17;;
8791;SDS011;4432;50.890;4.744;2022-08-20T09:38:54;7.37;;;2.43;;
8791;SDS011;4432;50.890;4.744;2022-08-20T09:41:20;7.67;;;3.27;;
8791;SDS011;4432;50.890;4.744;2022-08-20T09:43:46;5.43;;;2.20;;
8791;SDS011;4432;50.890;4.744;2022-08-20T09:46:11;3.97;;;1.90;;
8791;SDS011;4432;50.890;4.744;2022-08-20T09:48:37;3.73;;;1.53;;
8791;SDS011;4432;50.890;4.744;2022-08-20T09:51:03;4.97;;;1.73;;
8791;SDS011;4432;50.890;4.744;2022-08-20T09:53:29;3.03;;;1.53;;
8791;SDS011;4432;50.890;4.744;2022-08-20T09:55:56;4.57;;;1.90;;
8791;SDS011;4432;50.890;4.744;2022-08-20T10:01:12;5.10;;;2.17;;
8791;SDS011;4432;50.890;4.744;2022-08-20T10:03:40;5.77;;;1.90;;
8791;SDS011;4432;50.890;4.744;2022-08-20T10:06:07;4.23;;;1.80;;
8791;SDS011;4432;50.890;4.744;2022-08-20T10:08:34;3.90;;;2.03;;
8791;SDS011;4432;50.890;4.744;2022-08-20T10:10:59;3.00;;;1.67;;
8791;SDS011;4432;50.890;4.744;2022-08-20T10:13:25;3.03;;;1.53;;
8791;SDS011;4432;50.890;4.744;2022-08-20T10:15:51;3.20;;;1.77;;
8791;SDS011;4432;50.890;4.744;2022-08-20T10:18:16;3.10;;;1.50;;
8791;SDS011;4432;50.890;4.744;2022-08-20T10:20:42;5.43;;;2.10;;
8791;SDS011;4432;50.890;4.744;2022-08-20T10:23:08;3.70;;;1.73;;
8791;SDS011;4432;50.890;4.744;2022-08-20T10:25:35;6.13;;;1.80;;
8791;SDS011;4432;50.890;4.744;2022-08-20T10:28:01;3.20;;;1.60;;
8791;SDS011;4432;50.890;4.744;2022-08-20T10:30:27;2.73;;;1.67;;
8791;SDS011;4432;50.890;4.744;2022-08-20T10:32:53;6.80;;;2.00;;
8791;SDS011;4432;50.890;4.744;2022-08-20T10:35:19;3.47;;;1.87;;
8791;SDS011;4432;50.890;4.744;2022-08-20T10:37:45;4.33;;;1.60;;
8791;SDS011;4432;50.890;4.744;2022-08-20T10:40:11;4.57;;;1.63;;
8791;SDS011;4432;50.890;4.744;2022-08-20T10:42:39;6.20;;;1.83;;
8791;SDS011;4432;50.890;4.744;2022-08-20T10:45:06;3.27;;;1.53;;
8791;SDS011;4432;50.890;4.744;2022-08-20T10:47:33;3.87;;;1.50;;
8791;SDS011;4432;50.890;4.744;2022-08-20T10:49:59;4.07;;;1.70;;
8791;SDS011;4432;50.890;4.744;2022-08-20T10:52:26;9.63;;;1.77;;
8791;SDS011;4432;50.890;4.744;2022-08-20T10:54:53;4.97;;;1.70;;
8791;SDS011;4432;50.890;4.744;2022-08-20T10:57:20;3.60;;;1.50;;
8791;SDS011;4432;50.890;4.744;2022-08-20T10:59:48;6.97;;;1.70;;
8791;SDS011;4432;50.890;4.744;2022-08-20T11:02:16;3.27;;;1.33;;
8791;SDS011;4432;50.890;4.744;2022-08-20T11:04:43;7.00;;;1.70;;
8791;SDS011;4432;50.890;4.744;2022-08-20T11:07:14;3.43;;;1.40;;
8791;SDS011;4432;50.890;4.744;2022-08-20T11:10:04;6.50;;;1.77;;
8791;SDS011;4432;50.890;4.744;2022-08-20T11:12:31;6.27;;;1.70;;
8791;SDS011;4432;50.890;4.744;2022-08-20T11:14:57;8.17;;;2.20;;
8791;SDS011;4432;50.890;4.744;2022-08-20T11:17:27;2.97;;;1.40;;
8791;SDS011;4432;50.890;4.744;2022-08-20T11:19:55;3.07;;;1.43;;
8791;SDS011;4432;50.890;4.744;2022-08-20T11:22:21;3.40;;;1.47;;
8791;SDS011;4432;50.890;4.744;2022-08-20T11:24:48;6.20;;;1.73;;
8791;SDS011;4432;50.890;4.744;2022-08-20T11:27:21;7.93;;;1.93;;
8791;SDS011;4432;50.890;4.744;2022-08-20T11:29:50;6.27;;;1.57;;
8791;SDS011;4432;50.890;4.744;2022-08-20T11:32:17;4.90;;;1.50;;
8791;SDS011;4432;50.890;4.744;2022-08-20T11:34:43;2.30;;;1.30;;
8791;SDS011;4432;50.890;4.744;2022-08-20T11:37:09;5.90;;;1.90;;
8791;SDS011;4432;50.890;4.744;2022-08-20T11:39:36;2.77;;;1.50;;
8791;SDS011;4432;50.890;4.744;2022-08-20T11:42:02;3.37;;;1.80;;
8791;SDS011;4432;50.890;4.744;2022-08-20T11:44:27;3.27;;;1.27;;
8791;SDS011;4432;50.890;4.744;2022-08-20T11:46:53;7.77;;;1.60;;
8791;SDS011;4432;50.890;4.744;2022-08-20T11:49:22;2.80;;;1.53;;
8791;SDS011;4432;50.890;4.744;2022-08-20T11:51:48;4.07;;;1.83;;
8791;SDS011;4432;50.890;4.744;2022-08-20T11:54:13;5.83;;;1.70;;
8791;SDS011;4432;50.890;4.744;2022-08-20T11:56:39;4.60;;;1.70;;
8791;SDS011;4432;50.890;4.744;2022-08-20T11:59:05;3.43;;;1.37;;
8791;SDS011;4432;50.890;4.744;2022-08-20T12:01:30;4.87;;;1.30;;
8791;SDS011;4432;50.890;4.744;2022-08-20T12:03:56;3.33;;;1.50;;
8791;SDS011;4432;50.890;4.744;2022-08-20T12:06:22;4.47;;;1.87;;
8791;SDS011;4432;50.890;4.744;2022-08-20T12:08:48;5.00;;;1.80;;
8791;SDS011;4432;50.890;4.744;2022-08-20T12:11:13;8.20;;;1.93;;
8791;SDS011;4432;50.890;4.744;2022-08-20T12:13:39;2.33;;;1.43;;
8791;SDS011;4432;50.890;4.744;2022-08-20T12:16:05;3.33;;;1.60;;
8791;SDS011;4432;50.890;4.744;2022-08-20T12:18:31;3.33;;;1.73;;
8791;SDS011;4432;50.890;4.744;2022-08-20T12:20:57;5.40;;;1.70;;
8791;SDS011;4432;50.890;4.744;2022-08-20T12:23:22;3.07;;;1.57;;
8791;SDS011;4432;50.890;4.744;2022-08-20T12:25:48;4.83;;;1.87;;
8791;SDS011;4432;50.890;4.744;2022-08-20T12:28:14;4.97;;;1.83;;
8791;SDS011;4432;50.890;4.744;2022-08-20T12:30:40;4.00;;;1.60;;
8791;SDS011;4432;50.890;4.744;2022-08-20T12:33:06;3.03;;;1.43;;
8791;SDS011;4432;50.890;4.744;2022-08-20T12:35:32;2.77;;;1.37;;
8791;SDS011;4432;50.890;4.744;2022-08-20T12:38:00;4.17;;;1.60;;
8791;SDS011;4432;50.890;4.744;2022-08-20T12:40:28;4.70;;;1.60;;
8791;SDS011;4432;50.890;4.744;2022-08-20T12:42:54;5.17;;;1.73;;
8791;SDS011;4432;50.890;4.744;2022-08-20T12:45:20;6.93;;;2.10;;
8791;SDS011;4432;50.890;4.744;2022-08-20T12:47:46;6.47;;;1.50;;
8791;SDS011;4432;50.890;4.744;2022-08-20T12:50:17;8.60;;;1.63;;
8791;SDS011;4432;50.890;4.744;2022-08-20T12:52:45;5.23;;;1.67;;
8791;SDS011;4432;50.890;4.744;2022-08-20T12:55:13;2.20;;;1.37;;
8791;SDS011;4432;50.890;4.744;2022-08-20T12:57:50;3.07;;;1.30;;
8791;SDS011;4432;50.890;4.744;2022-08-20T13:00:19;3.93;;;1.73;;
8791;SDS011;4432;50.890;4.744;2022-08-20T13:02:50;3.30;;;1.27;;
8791;SDS011;4432;50.890;4.744;2022-08-20T13:05:17;3.57;;;2.03;;
8791;SDS011;4432;50.890;4.744;2022-08-20T13:07:43;3.07;;;1.50;;
8791;SDS011;4432;50.890;4.744;2022-08-20T13:10:11;2.57;;;1.50;;
8791;SDS011;4432;50.890;4.744;2022-08-20T13:12:42;3.53;;;1.50;;
8791;SDS011;4432;50.890;4.744;2022-08-20T13:15:09;4.03;;;1.40;;
8791;SDS011;4432;50.890;4.744;2022-08-20T13:17:35;4.37;;;1.70;;
8791;SDS011;4432;50.890;4.744;2022-08-20T13:20:01;2.23;;;1.50;;
8791;SDS011;4432;50.890;4.744;2022-08-20T13:22:29;4.63;;;1.70;;
8791;SDS011;4432;50.890;4.744;2022-08-20T13:24:55;10.67;;;1.70;;
8791;SDS011;4432;50.890;4.744;2022-08-20T13:27:20;4.13;;;1.50;;
8791;SDS011;4432;50.890;4.744;2022-08-20T13:32:12;6.13;;;1.60;;
8791;SDS011;4432;50.890;4.744;2022-08-20T13:34:38;5.53;;;1.60;;
8791;SDS011;4432;50.890;4.744;2022-08-20T13:39:44;9.80;;;1.70;;
8791;SDS011;4432;50.890;4.744;2022-08-20T13:42:11;4.23;;;1.50;;
8791;SDS011;4432;50.890;4.744;2022-08-20T13:44:38;3.57;;;1.30;;
8791;SDS011;4432;50.890;4.744;2022-08-20T13:47:21;4.10;;;1.50;;
8791;SDS011;4432;50.890;4.744;2022-08-20T13:50:11;4.43;;;1.43;;
8791;SDS011;4432;50.890;4.744;2022-08-20T13:52:40;3.47;;;1.20;;
8791;SDS011;4432;50.890;4.744;2022-08-20T13:55:07;5.93;;;2.07;;
8791;SDS011;4432;50.890;4.744;2022-08-20T13:57:35;1.90;;;1.50;;
8791;SDS011;4432;50.890;4.744;2022-08-20T14:00:06;1.40;;;0.97;;
8791;SDS011;4432;50.890;4.744;2022-08-20T14:02:36;2.63;;;1.20;;
8791;SDS011;4432;50.890;4.744;2022-08-20T14:05:02;2.60;;;1.17;;
8791;SDS011;4432;50.890;4.744;2022-08-20T14:07:28;2.30;;;1.30;;
8791;SDS011;4432;50.890;4.744;2022-08-20T14:09:56;5.87;;;1.10;;
8791;SDS011;4432;50.890;4.744;2022-08-20T14:12:24;2.27;;;1.30;;
8791;SDS011;4432;50.890;4.744;2022-08-20T14:14:51;2.00;;;1.13;;
8791;SDS011;4432;50.890;4.744;2022-08-20T14:17:21;4.17;;;1.20;;
8791;SDS011;4432;50.890;4.744;2022-08-20T14:19:50;1.87;;;1.17;;
8791;SDS011;4432;50.890;4.744;2022-08-20T14:22:18;2.67;;;1.13;;
8791;SDS011;4432;50.890;4.744;2022-08-20T14:24:44;3.07;;;1.57;;
8791;SDS011;4432;50.890;4.744;2022-08-20T14:27:10;2.97;;;1.30;;
8791;SDS011;4432;50.890;4.744;2022-08-20T14:29:39;1.83;;;1.37;;
8791;SDS011;4432;50.890;4.744;2022-08-20T14:32:06;3.83;;;1.37;;
8791;SDS011;4432;50.890;4.744;2022-08-20T14:34:33;2.50;;;1.13;;
8791;SDS011;4432;50.890;4.744;2022-08-20T14:37:08;1.67;;;1.23;;
8791;SDS011;4432;50.890;4.744;2022-08-20T14:39:34;3.00;;;1.43;;
8791;SDS011;4432;50.890;4.744;2022-08-20T14:42:00;4.17;;;1.40;;
8791;SDS011;4432;50.890;4.744;2022-08-20T14:44:26;2.47;;;1.40;;
8791;SDS011;4432;50.890;4.744;2022-08-20T14:46:54;1.07;;;1.00;;
8791;SDS011;4432;50.890;4.744;2022-08-20T14:49:20;2.13;;;1.27;;
8791;SDS011;4432;50.890;4.744;2022-08-20T14:51:46;1.50;;;1.03;;
8791;SDS011;4432;50.890;4.744;2022-08-20T14:54:11;3.23;;;1.20;;
8791;SDS011;4432;50.890;4.744;2022-08-20T14:56:37;3.63;;;1.40;;
8791;SDS011;4432;50.890;4.744;2022-08-20T14:59:03;1.43;;;1.20;;
8791;SDS011;4432;50.890;4.744;2022-08-20T15:01:29;2.93;;;1.43;;
8791;SDS011;4432;50.890;4.744;2022-08-20T15:03:54;2.07;;;1.03;;
8791;SDS011;4432;50.890;4.744;2022-08-20T15:06:20;2.97;;;1.40;;
8791;SDS011;4432;50.890;4.744;2022-08-20T15:08:46;1.60;;;1.47;;
8791;SDS011;4432;50.890;4.744;2022-08-20T15:11:12;1.87;;;1.40;;
8791;SDS011;4432;50.890;4.744;2022-08-20T15:13:38;4.83;;;1.20;;
8791;SDS011;4432;50.890;4.744;2022-08-20T15:16:03;2.83;;;1.40;;
8791;SDS011;4432;50.890;4.744;2022-08-20T15:18:29;4.57;;;1.27;;
8791;SDS011;4432;50.890;4.744;2022-08-20T15:20:56;2.17;;;1.23;;
8791;SDS011;4432;50.890;4.744;2022-08-20T15:23:21;2.47;;;1.40;;
8791;SDS011;4432;50.890;4.744;2022-08-20T15:25:48;1.43;;;1.20;;